Sparta, WI

9:52 PM CST on November 28, 2014 (GMT -0600)
La Crosse Municipal | Change Station
CLOSE
Current Station
Airport
Location: La Crosse,
Elevation: 653 ft
Nearby Weather Stations

Elev 653 ft 43.88 °N, 91.25 °W | Updated 59 minutes ago

Partly Cloudy
Partly Cloudy
27 °F
Feels Like 23 °F
N
4
Wind Variable Wind from East

Today
High -- | Low -- °F
--% Chance of Precip.
Yesterday
High -- | Low -- °F
Precip. -- in
7:14 AM 4:27 PM
Waxing Crescent, 47% visible
Pressure 29.89 in
Visibility 10.0 miles
Clouds Clear
Windchill 23 °F
Dew Point 20 °F
Humidity 75%
Rainfall 0.05 in
Snow Depth Not available.
UV 0 out of 12
Pollen .10 out of 12
Air Quality Not available.
Flu Activity Not available.
METAR KLSE 290253Z AUTO 10003KT 10SM CLR M03/M07 A2984 RMK AO2 SLP120 T10281067 56018

More Conditions Fewer Conditions

Pressure 29.89 in
Visibility 10.0 miles
Clouds Clear
Windchill 23 °F
Dew Point 20 °F
Humidity 75%
Rainfall 0.05 in
Snow Depth Not available.
UV 0 out of 12
Pollen .10 out of 12
Air Quality Not available.
Flu Activity Not available.
METAR KLSE 290253Z AUTO 10003KT 10SM CLR M03/M07 A2984 RMK AO2 SLP120 T10281067 56018

More Conditions Fewer Conditions

10-Day Weather Forecast

Almanac

Astronomy

Nov. 28, 2014 Rise Set
Actual Time
Civil Twilight
Nautical Twilight
Astronomical Twilight
Moon
Length of Visible Light
Length of Day
Tomorrow will be .
, % of the Moon is Illuminated

Today's Extremes

State Highs State Lows

Community

WunderPhotos

Upload Photos

1,774,389 photos uploaded!

WunderBlogs® & News

Nearby

Air Quality

  Air Quality AQ Index Pollutant
Not available.

Snow Depth

Station Depth Elevation

Earthquake Activity

City Distance Mag. Time & Date
Minimum magnitude displayed is 2.5.

Coastal Water Temperatures

Place Temperature

Nearby Weather Stations